Time;durP1;ratioP1;P1;durP2;ratioP2;P2;SDS_P1;SDS_P2;PMS_P1;PMS_P2;Temp;Humidity;BMP_temperature;BMP_pressure;BME280_temperature;BME280_humidity;BME280_pressure;Samples;Min_cycle;Max_cycle;Signal;HPM_P1;HPM_P2
2022/11/06 00:01:27;;;;;;;7.80;3.75;;;11.80;57.20;;;;;;5039357;28;20056;-40
2022/11/06 00:03:55;;;;;;;6.93;4.05;;;11.70;57.20;;;;;;5044080;28;20065;-40
2022/11/06 00:09:09;;;;;;;8.10;4.80;;;11.70;57.20;;;;;;5043494;28;20420;-39
2022/11/06 00:11:36;;;;;;;8.80;4.00;;;11.70;57.20;;;;;;5038596;28;20053;-38
2022/11/06 00:14:07;;;;;;;9.10;4.03;;;11.70;57.20;;;;;;5042132;28;20931;-42
2022/11/06 00:16:37;;;;;;;10.77;4.45;;;11.70;57.30;;;;;;5039522;28;20064;-40
2022/11/06 00:19:05;;;;;;;9.57;4.30;;;11.70;57.30;;;;;;5042532;28;20053;-41
2022/11/06 00:21:32;;;;;;;13.68;5.10;;;11.70;57.30;;;;;;5039334;28;20386;-43
2022/11/06 00:24:01;;;;;;;8.82;4.28;;;11.70;57.30;;;;;;5043416;28;20053;-41
2022/11/06 00:26:29;;;;;;;10.10;3.58;;;11.60;57.30;;;;;;5039651;28;20421;-40
2022/11/06 00:28:57;;;;;;;8.55;3.90;;;11.70;57.30;;;;;;5043894;28;20057;-39
2022/11/06 00:31:27;;;;;;;9.57;3.67;;;11.60;57.30;;;;;;5040551;28;20488;-42
2022/11/06 00:33:57;;;;;;;9.20;4.93;;;11.60;57.30;;;;;;5040650;28;20053;-40
2022/11/06 00:36:26;;;;;;;6.72;3.58;;;11.60;57.40;;;;;;5042804;28;20060;-41
2022/11/06 00:38:54;;;;;;;10.38;4.07;;;11.60;57.30;;;;;;5043680;28;20064;-42
2022/11/06 00:41:23;;;;;;;6.93;3.30;;;11.60;57.40;;;;;;5039256;28;20048;-41
2022/11/06 00:43:51;;;;;;;11.48;4.53;;;11.60;57.40;;;;;;5043042;28;20064;-39
2022/11/06 00:46:19;;;;;;;8.90;3.88;;;11.60;57.90;;;;;;5042160;28;20418;-40
2022/11/06 00:48:46;;;;;;;6.72;3.30;;;11.60;57.40;;;;;;5043495;28;20119;-41
2022/11/06 00:51:16;;;;;;;7.38;3.83;;;11.60;57.50;;;;;;5038247;28;20060;-41
2022/11/06 00:53:45;;;;;;;13.48;4.28;;;11.60;57.50;;;;;;5039676;28;20049;-40
2022/11/06 00:56:14;;;;;;;7.72;3.58;;;11.60;57.50;;;;;;5043335;28;20433;-39
2022/11/06 00:58:42;;;;;;;7.45;3.80;;;11.50;57.50;;;;;;5042987;28;20064;-39
2022/11/06 01:01:11;;;;;;;8.80;3.05;;;11.50;57.50;;;;;;5037202;28;20057;-40
2022/11/06 01:03:40;;;;;;;10.43;2.90;;;11.50;57.60;;;;;;5041439;28;20076;-39
2022/11/06 01:06:08;;;;;;;10.98;3.22;;;11.50;57.60;;;;;;5042733;28;20052;-39
2022/11/06 01:08:37;;;;;;;8.90;2.97;;;11.50;57.70;;;;;;5042241;28;20057;-39
2022/11/06 01:11:09;;;;;;;11.88;3.05;;;11.50;57.70;;;;;;5038466;28;20048;-39
2022/11/06 01:13:37;;;;;;;7.90;3.15;;;11.50;57.70;;;;;;5040569;28;20485;-39
2022/11/06 01:16:06;;;;;;;9.52;3.95;;;11.50;57.70;;;;;;5039077;28;20072;-40
2022/11/06 01:18:36;;;;;;;6.90;3.17;;;11.50;57.80;;;;;;5038870;28;20072;-38
2022/11/06 01:21:05;;;;;;;5.97;2.90;;;11.50;57.80;;;;;;5033805;28;20053;-39
2022/11/06 01:23:33;;;;;;;11.52;3.60;;;11.50;57.70;;;;;;5040305;28;20072;-43
2022/11/06 01:26:04;;;;;;;7.60;3.07;;;11.50;57.70;;;;;;5042890;28;20116;-39
2022/11/06 01:28:32;;;;;;;8.55;3.67;;;11.50;57.70;;;;;;5043060;28;20785;-40
2022/11/06 01:31:03;;;;;;;6.00;3.38;;;11.50;57.70;;;;;;5038818;28;20059;-39
2022/11/06 01:33:30;;;;;;;8.07;3.28;;;11.50;57.70;;;;;;5040047;28;20095;-43
2022/11/06 01:35:57;;;;;;;10.75;2.75;;;11.50;57.70;;;;;;5046254;28;20049;-43
2022/11/06 01:38:25;;;;;;;6.93;3.00;;;11.50;57.70;;;;;;5046450;28;20504;-42
2022/11/06 01:40:53;;;;;;;5.00;2.38;;;11.50;57.70;;;;;;5043025;28;20500;-39
2022/11/06 01:43:24;;;;;;;5.32;3.13;;;11.50;57.70;;;;;;5044892;28;20057;-39
2022/11/06 01:45:53;;;;;;;10.48;3.50;;;11.50;57.60;;;;;;5045757;28;20504;-39
2022/11/06 01:48:26;;;;;;;8.52;2.42;;;11.50;57.60;;;;;;5045530;28;20049;-39
2022/11/06 01:50:57;;;;;;;8.77;2.53;;;11.40;57.60;;;;;;5042102;28;20064;-39
2022/11/06 01:53:26;;;;;;;11.25;3.15;;;11.40;57.60;;;;;;5044133;28;20498;-39
2022/11/06 01:55:58;;;;;;;5.43;2.83;;;11.40;57.70;;;;;;5046697;28;20424;-41
2022/11/06 01:58:29;;;;;;;9.55;3.00;;;11.40;57.70;;;;;;5046722;28;20412;-40
2022/11/06 02:00:57;;;;;;;6.07;2.75;;;11.40;57.80;;;;;;5041405;28;20049;-44
2022/11/06 02:03:24;;;;;;;9.82;3.03;;;11.40;57.70;;;;;;5043395;28;20053;-39
2022/11/06 02:05:52;;;;;;;7.10;2.67;;;11.40;57.70;;;;;;5045517;28;20519;-39
2022/11/06 02:08:22;;;;;;;7.85;2.88;;;11.40;57.70;;;;;;5045252;28;20060;-39
2022/11/06 02:10:50;;;;;;;12.00;2.70;;;11.40;57.70;;;;;;5040164;28;20053;-39
2022/11/06 02:13:27;;;;;;;7.05;2.83;;;11.40;58.20;;;;;;5042030;28;20049;-41
2022/11/06 02:16:05;;;;;;;5.65;2.47;;;11.40;57.70;;;;;;5040986;28;20060;-39
2022/11/06 02:18:47;;;;;;;6.13;2.90;;;11.40;57.70;;;;;;5046424;28;20060;-39
2022/11/06 02:21:50;;;;;;;4.75;2.50;;;11.40;57.70;;;;;;5044092;28;20065;-39
2022/11/06 02:24:54;;;;;;;5.63;2.72;;;11.30;57.60;;;;;;5007225;28;20057;-39
2022/11/06 02:27:26;;;;;;;5.80;2.25;;;11.30;57.60;;;;;;5044559;28;20052;-38
2022/11/06 02:30:00;;;;;;;9.85;2.72;;;11.30;57.60;;;;;;5045927;28;20060;-42
2022/11/06 02:32:33;;;;;;;7.05;2.58;;;11.30;57.60;;;;;;5043160;28;20377;-41
2022/11/06 02:35:04;;;;;;;5.03;2.38;;;11.30;57.70;;;;;;5044705;28;20053;-43
2022/11/06 02:37:36;;;;;;;6.50;2.60;;;11.30;57.70;;;;;;5043392;28;20057;-41
2022/11/06 02:40:07;;;;;;;7.85;2.22;;;11.30;57.60;;;;;;5043535;28;20048;-40
2022/11/06 02:42:39;;;;;;;6.00;2.35;;;11.30;57.70;;;;;;5042185;28;20061;-40
2022/11/06 02:45:10;;;;;;;6.40;2.25;;;11.20;58.20;;;;;;5044939;28;20056;-39
2022/11/06 02:47:40;;;;;;;5.85;2.40;;;11.30;57.80;;;;;;5044573;28;20508;-42
2022/11/06 02:50:15;;;;;;;4.47;2.17;;;11.20;58.30;;;;;;5038602;28;20091;-38
2022/11/06 02:52:47;;;;;;;7.25;2.35;;;11.30;57.90;;;;;;5042757;28;20052;-40
2022/11/06 02:55:19;;;;;;;5.88;2.25;;;11.20;57.90;;;;;;5045190;28;20060;-42
2022/11/06 02:57:53;;;;;;;4.78;2.58;;;11.30;58.00;;;;;;5045010;28;20060;-42
2022/11/06 03:00:22;;;;;;;4.95;2.17;;;11.20;58.00;;;;;;5039685;28;20060;-43
2022/11/06 03:02:55;;;;;;;5.75;2.30;;;11.20;58.00;;;;;;5044864;28;20061;-42
2022/11/06 03:05:28;;;;;;;7.28;2.63;;;11.20;58.00;;;;;;5044574;28;20061;-39
2022/11/06 03:08:02;;;;;;;4.23;2.40;;;11.20;58.10;;;;;;5045192;28;20068;-40
2022/11/06 03:10:39;;;;;;;6.38;2.30;;;11.20;58.10;;;;;;5041406;28;20075;-41
2022/11/06 03:13:17;;;;;;;8.10;2.47;;;11.20;58.10;;;;;;5039042;28;20064;-39
2022/11/06 03:15:55;;;;;;;10.70;2.42;;;11.20;58.00;;;;;;5043913;28;20060;-40
2022/11/06 03:18:29;;;;;;;7.15;2.50;;;11.20;58.00;;;;;;5044849;28;20049;-39
2022/11/06 03:21:03;;;;;;;6.32;2.40;;;11.20;58.00;;;;;;5042220;28;20060;-40
2022/11/06 03:23:35;;;;;;;6.07;2.17;;;11.20;58.00;;;;;;5043311;28;20053;-40
2022/11/06 03:26:12;;;;;;;6.15;2.10;;;11.20;58.00;;;;;;5044440;28;20416;-38
2022/11/06 03:28:51;;;;;;;4.93;2.03;;;11.20;58.00;;;;;;5044999;28;20052;-39
2022/11/06 03:31:25;;;;;;;6.22;1.85;;;11.20;58.00;;;;;;5035786;28;20063;-50
2022/11/06 03:33:54;;;;;;;;;;;11.20;58.00;;;;;;5037364;28;20064;-50
2022/11/06 03:36:25;;;;;;;5.97;2.08;;;11.20;58.50;;;;;;5040061;28;19921;-49
2022/11/06 03:38:55;;;;;;;5.28;1.75;;;11.30;57.90;;;;;;5043068;28;20480;-50
2022/11/06 03:41:28;;;;;;;6.57;2.08;;;11.20;57.80;;;;;;5042173;28;20060;-48
2022/11/06 03:43:59;;;;;;;8.05;2.28;;;11.20;57.90;;;;;;5045596;28;20048;-39
2022/11/06 03:46:29;;;;;;;3.55;1.40;;;11.20;57.90;;;;;;5043275;28;20053;-39
2022/11/06 03:49:00;;;;;;;6.70;1.77;;;11.20;57.90;;;;;;5040250;28;20045;-44
2022/11/06 03:51:32;;;;;;;9.30;2.10;;;11.20;57.90;;;;;;5039052;28;20055;-39
2022/11/06 03:54:02;;;;;;;6.35;1.88;;;11.20;57.80;;;;;;5038620;28;20068;-39
2022/11/06 03:56:35;;;;;;;5.43;2.00;;;11.10;57.70;;;;;;5025607;28;20052;-44
2022/11/06 03:59:06;;;;;;;3.30;1.42;;;11.10;57.70;;;;;;5037072;28;20053;-40
2022/11/06 04:01:37;;;;;;;3.92;1.33;;;11.10;57.80;;;;;;5043640;28;20057;-39
2022/11/06 04:04:09;;;;;;;7.18;1.73;;;11.10;57.80;;;;;;5041960;28;20053;-39
2022/11/06 04:06:43;;;;;;;4.00;1.75;;;11.10;57.90;;;;;;5040312;28;20064;-39
2022/11/06 04:14:54;;;;;;;2.97;1.30;;;11.10;57.80;;;;;;5050271;28;20056;-39
2022/11/06 04:17:23;;;;;;;3.85;1.30;;;11.10;57.80;;;;;;5006516;28;20050;-40
2022/11/06 04:19:53;;;;;;;2.80;1.33;;;11.10;57.90;;;;;;5022953;28;20056;-38
2022/11/06 04:22:34;;;;;;;4.13;1.48;;;11.00;57.90;;;;;;5022547;28;20049;-42
2022/11/06 04:28:13;;;;;;;4.22;1.98;;;11.00;57.90;;;;;;5028600;28;20056;-40
2022/11/06 04:30:50;;;;;;;3.72;1.70;;;11.00;57.80;;;;;;5023162;28;20521;-39
2022/11/06 04:33:25;;;;;;;5.35;1.52;;;11.00;57.80;;;;;;5023467;28;20068;-38
2022/11/06 04:36:00;;;;;;;4.70;1.27;;;11.00;57.80;;;;;;5023006;28;20060;-40
2022/11/06 04:38:38;;;;;;;3.72;1.40;;;11.00;57.90;;;;;;5022295;28;20049;-43
2022/11/06 04:41:14;;;;;;;5.78;2.13;;;11.00;57.90;;;;;;5022858;28;20065;-40
2022/11/06 04:43:47;;;;;;;7.97;1.90;;;11.00;57.90;;;;;;5023228;28;20164;-42
2022/11/06 04:46:23;;;;;;;3.50;1.38;;;11.00;57.90;;;;;;5022484;28;20057;-39
2022/11/06 04:48:51;;;;;;;5.85;1.33;;;11.00;58.00;;;;;;5023660;28;20052;-39
2022/11/06 04:51:22;;;;;;;6.53;1.35;;;11.00;57.90;;;;;;5022894;28;20056;-38
2022/11/06 04:53:52;;;;;;;4.55;1.50;;;11.00;58.00;;;;;;5023361;28;20053;-41
2022/11/06 04:56:25;;;;;;;3.30;1.17;;;11.00;58.00;;;;;;5022748;28;20057;-40
2022/11/06 04:58:52;;;;;;;4.53;1.20;;;11.00;58.00;;;;;;5022657;28;20512;-42
2022/11/06 05:01:21;;;;;;;4.15;1.73;;;11.00;58.00;;;;;;5021593;28;20064;-41
2022/11/06 05:03:48;;;;;;;4.18;1.35;;;11.00;58.00;;;;;;5023105;28;20516;-39
2022/11/06 05:06:16;;;;;;;21.15;9.57;;;11.00;58.00;;;;;;5022572;28;20068;-39
2022/11/06 05:08:43;;;;;;;14.27;6.05;;;11.00;58.10;;;;;;5023224;28;20057;-39
2022/11/06 05:11:10;;;;;;;17.77;3.20;;;11.00;58.10;;;;;;5023829;28;20424;-38
2022/11/06 05:13:37;;;;;;;7.03;2.00;;;11.00;58.10;;;;;;5022546;28;20501;-39
2022/11/06 05:16:05;;;;;;;4.93;1.90;;;11.00;58.10;;;;;;5014209;28;20060;-39
2022/11/06 05:18:34;;;;;;;4.18;1.35;;;11.00;58.10;;;;;;5010872;28;20045;-41
2022/11/06 05:23:46;;;;;;;4.07;1.40;;;11.00;58.10;;;;;;5028157;28;20064;-38
2022/11/06 05:26:14;;;;;;;6.28;1.58;;;11.00;58.10;;;;;;5018848;28;20068;-43
2022/11/06 05:28:41;;;;;;;5.20;1.63;;;11.00;58.10;;;;;;5022560;28;20053;-38
2022/11/06 05:31:08;;;;;;;4.90;1.52;;;11.00;58.00;;;;;;5020350;28;20058;-38
2022/11/06 05:33:38;;;;;;;12.60;5.25;;;11.00;58.00;;;;;;5023114;28;20069;-39
2022/11/06 05:36:06;;;;;;;29.30;11.45;;;11.00;58.50;;;;;;5022485;28;20076;-38
2022/11/06 05:38:34;;;;;;;14.32;4.22;;;11.00;57.90;;;;;;5022551;28;20053;-40
2022/11/06 05:41:01;;;;;;;4.95;2.10;;;11.00;57.90;;;;;;5022856;28;20124;-43
2022/11/06 05:43:28;;;;;;;4.97;1.83;;;11.00;57.90;;;;;;5022409;28;20057;-41
2022/11/06 05:45:56;;;;;;;7.40;1.75;;;11.00;57.90;;;;;;5013758;28;20054;-41
2022/11/06 05:48:23;;;;;;;6.20;1.85;;;11.10;58.00;;;;;;5021105;28;20046;-40
2022/11/06 05:50:51;;;;;;;8.93;1.48;;;11.00;57.90;;;;;;5021644;28;20104;-42
2022/11/06 05:53:19;;;;;;;7.88;1.52;;;11.10;58.00;;;;;;5023031;28;20519;-41
2022/11/06 05:55:46;;;;;;;8.55;1.90;;;11.00;58.00;;;;;;5022663;28;20061;-41
2022/11/06 05:58:14;;;;;;;6.93;1.60;;;11.10;58.00;;;;;;5023129;28;20417;-43
2022/11/06 06:00:41;;;;;;;12.60;3.67;;;11.00;58.00;;;;;;5021545;28;20049;-42
2022/11/06 06:03:11;;;;;;;25.17;11.32;;;11.10;58.00;;;;;;5020715;28;20061;-43
2022/11/06 06:05:38;;;;;;;11.18;4.53;;;11.00;58.00;;;;;;5019904;28;20058;-39
2022/11/06 06:08:07;;;;;;;7.03;2.80;;;11.00;58.00;;;;;;5019849;28;20398;-39
2022/11/06 06:10:34;;;;;;;5.63;1.60;;;11.10;58.00;;;;;;5022987;28;20057;-39
2022/11/06 06:13:01;;;;;;;11.52;2.60;;;11.00;58.00;;;;;;5022328;28;20588;-40
2022/11/06 06:15:28;;;;;;;4.97;1.42;;;11.10;58.00;;;;;;5022488;28;20600;-40
2022/11/06 06:17:57;;;;;;;6.07;1.45;;;11.10;58.00;;;;;;5020025;28;20045;-40
2022/11/06 06:20:25;;;;;;;5.63;1.60;;;11.10;58.10;;;;;;5022577;28;20061;-40
2022/11/06 06:22:55;;;;;;;4.40;1.65;;;11.10;58.60;;;;;;5025314;28;20056;-40
2022/11/06 06:25:24;;;;;;;6.47;1.70;;;11.10;58.20;;;;;;5025378;28;20057;-41
2022/11/06 06:27:52;;;;;;;5.57;1.95;;;11.10;58.20;;;;;;5026574;28;20053;-41
2022/11/06 06:30:21;;;;;;;5.88;2.47;;;11.10;58.30;;;;;;5025751;28;20053;-40
2022/11/06 06:32:48;;;;;;;5.00;2.13;;;11.10;58.30;;;;;;5025622;28;20057;-39
2022/11/06 06:35:16;;;;;;;6.53;1.83;;;11.10;58.40;;;;;;5021920;28;20433;-40
2022/11/06 06:37:43;;;;;;;6.38;2.00;;;11.10;58.40;;;;;;5023894;28;20060;-42
2022/11/06 06:40:11;;;;;;;9.50;2.20;;;11.10;58.50;;;;;;5016402;28;20060;-42
2022/11/06 06:42:40;;;;;;;5.78;2.03;;;11.10;58.60;;;;;;5026423;28;20060;-40
2022/11/06 06:45:08;;;;;;;6.38;2.55;;;11.00;58.60;;;;;;5026176;28;20073;-38
2022/11/06 06:47:35;;;;;;;7.45;2.10;;;11.10;58.70;;;;;;5025479;28;20053;-40
2022/11/06 06:50:02;;;;;;;5.53;2.15;;;11.10;58.80;;;;;;5021121;28;20057;-43
2022/11/06 06:52:29;;;;;;;11.27;2.75;;;11.10;58.80;;;;;;5017178;28;20060;-43
2022/11/06 06:54:57;;;;;;;4.95;2.45;;;11.10;58.90;;;;;;5025693;28;20061;-41
2022/11/06 06:57:24;;;;;;;29.27;10.55;;;11.10;59.00;;;;;;5022016;28;20072;-39
2022/11/06 06:59:52;;;;;;;21.65;7.75;;;11.10;59.00;;;;;;5021301;28;20385;-40
2022/11/06 07:02:20;;;;;;;10.20;4.22;;;11.10;59.10;;;;;;5015256;28;20057;-39
2022/11/06 07:04:47;;;;;;;11.82;3.25;;;11.10;59.10;;;;;;5023075;28;20061;-38
2022/11/06 07:07:14;;;;;;;10.50;2.80;;;11.10;59.10;;;;;;5021659;28;20061;-39
2022/11/06 07:09:41;;;;;;;8.10;2.28;;;11.10;59.20;;;;;;5022972;28;20132;-38
2022/11/06 07:12:08;;;;;;;6.60;2.15;;;11.10;59.30;;;;;;5023730;28;20057;-41
2022/11/06 07:14:36;;;;;;;4.00;2.00;;;11.20;59.30;;;;;;5024845;28;20516;-39
2022/11/06 07:17:04;;;;;;;9.45;2.45;;;11.20;59.40;;;;;;5023576;28;20884;-38
2022/11/06 07:19:31;;;;;;;8.45;2.47;;;11.20;59.40;;;;;;5021794;28;20041;-39
2022/11/06 07:21:59;;;;;;;7.43;2.50;;;11.20;59.40;;;;;;5022358;28;20064;-41
2022/11/06 07:24:26;;;;;;;8.95;2.80;;;11.20;59.40;;;;;;5025076;28;20060;-40
2022/11/06 07:26:53;;;;;;;8.30;2.42;;;11.20;59.50;;;;;;5023256;28;20056;-43
2022/11/06 07:29:20;;;;;;;7.80;2.88;;;11.20;59.50;;;;;;5018708;28;20045;-40
2022/11/06 07:31:47;;;;;;;5.22;2.58;;;11.30;59.50;;;;;;5021493;28;20068;-39
2022/11/06 07:34:16;;;;;;;6.40;2.42;;;11.30;59.50;;;;;;5024308;28;20053;-39
2022/11/06 07:36:43;;;;;;;7.68;2.35;;;11.30;59.50;;;;;;5024661;28;20061;-42
2022/11/06 07:39:10;;;;;;;7.85;2.65;;;11.30;59.50;;;;;;5022179;28;20045;-38
2022/11/06 07:41:38;;;;;;;14.05;4.35;;;11.30;59.60;;;;;;5022392;28;20057;-41
2022/11/06 07:44:05;;;;;;;10.55;3.40;;;11.40;59.60;;;;;;5020875;28;20053;-38
2022/11/06 07:46:32;;;;;;;7.55;2.72;;;11.40;59.60;;;;;;5021203;28;20413;-45
2022/11/06 07:49:00;;;;;;;7.50;2.72;;;11.40;59.60;;;;;;5016099;28;20050;-40
2022/11/06 07:51:28;;;;;;;7.07;2.42;;;11.50;59.70;;;;;;5021958;28;20049;-41
2022/11/06 07:53:56;;;;;;;14.60;3.22;;;11.50;59.70;;;;;;5024310;28;20057;-39
2022/11/06 07:56:23;;;;;;;8.68;3.05;;;11.50;59.70;;;;;;5022382;28;20072;-39
2022/11/06 07:58:50;;;;;;;6.43;2.92;;;11.50;59.70;;;;;;5022476;28;20060;-40
2022/11/06 08:01:18;;;;;;;7.35;3.28;;;11.50;59.60;;;;;;5020988;28;20461;-39
2022/11/06 08:03:45;;;;;;;5.95;2.92;;;11.60;59.70;;;;;;5019201;28;20433;-44
2022/11/06 08:06:13;;;;;;;5.97;2.92;;;11.60;59.60;;;;;;5015422;28;20050;-40
2022/11/06 08:08:41;;;;;;;10.73;3.03;;;11.60;59.60;;;;;;5024167;28;20465;-41
2022/11/06 08:11:11;;;;;;;6.53;3.13;;;11.70;59.60;;;;;;5022439;28;21433;-40
2022/11/06 08:13:39;;;;;;;12.13;3.25;;;11.70;59.60;;;;;;5021709;28;20052;-40
2022/11/06 08:16:07;;;;;;;6.60;3.58;;;11.70;59.60;;;;;;5020585;28;20062;-39
2022/11/06 08:18:35;;;;;;;10.38;3.67;;;11.80;59.60;;;;;;5022649;28;20057;-42
2022/11/06 08:21:02;;;;;;;6.53;3.35;;;11.80;59.60;;;;;;5016803;28;20413;-40
2022/11/06 08:23:30;;;;;;;9.30;3.88;;;11.80;59.50;;;;;;5023282;28;20481;-39
2022/11/06 08:26:00;;;;;;;9.32;4.68;;;11.80;59.50;;;;;;5021833;28;20056;-43
2022/11/06 08:28:28;;;;;;;7.60;3.42;;;11.80;59.40;;;;;;5019739;28;20413;-39
2022/11/06 08:30:55;;;;;;;7.43;3.80;;;11.90;59.40;;;;;;5022694;28;20405;-42
2022/11/06 08:33:23;;;;;;;10.55;3.40;;;11.90;59.40;;;;;;5021774;28;20057;-39
2022/11/06 08:35:51;;;;;;;7.03;3.53;;;11.90;59.40;;;;;;5023617;28;20500;-42
2022/11/06 08:38:19;;;;;;;10.32;3.50;;;11.90;59.40;;;;;;5023167;28;20076;-42
2022/11/06 08:40:46;;;;;;;13.63;4.57;;;12.00;59.40;;;;;;5020242;28;20481;-40
2022/11/06 08:43:14;;;;;;;14.35;4.63;;;12.00;59.30;;;;;;5024202;28;20076;-39
2022/11/06 08:45:43;;;;;;;14.18;3.90;;;12.00;59.20;;;;;;5024061;28;20416;-43
2022/11/06 08:48:11;;;;;;;8.63;3.83;;;12.10;59.10;;;;;;5023429;28;20061;-38
2022/11/06 08:50:40;;;;;;;10.43;3.97;;;12.00;59.10;;;;;;5020170;28;20080;-40
2022/11/06 08:53:08;;;;;;;9.98;3.90;;;12.10;59.10;;;;;;5023339;28;20394;-39
2022/11/06 08:55:38;;;;;;;9.40;3.80;;;12.20;59.10;;;;;;5023870;28;20064;-41
2022/11/06 08:58:06;;;;;;;12.55;4.13;;;12.10;58.90;;;;;;5022190;28;20049;-39
2022/11/06 09:00:35;;;;;;;10.70;4.22;;;12.20;58.80;;;;;;5018389;28;20061;-39
2022/11/06 09:03:05;;;;;;;9.45;3.97;;;12.20;58.70;;;;;;5022647;28;20064;-40
2022/11/06 09:05:32;;;;;;;7.50;3.50;;;12.20;58.70;;;;;;5021818;28;20045;-39
2022/11/06 09:08:00;;;;;;;7.22;3.45;;;12.30;58.70;;;;;;5020672;28;21086;-38
2022/11/06 09:10:28;;;;;;;7.53;3.38;;;12.30;58.70;;;;;;5021486;28;20515;-39
2022/11/06 09:12:58;;;;;;;11.70;3.97;;;12.30;58.60;;;;;;5023543;28;20053;-43
2022/11/06 09:15:25;;;;;;;15.35;3.88;;;12.30;58.50;;;;;;5023880;28;20525;-38
2022/11/06 09:17:54;;;;;;;9.85;3.72;;;12.30;58.40;;;;;;5021064;28;20053;-40
2022/11/06 09:20:23;;;;;;;7.35;3.58;;;12.30;58.30;;;;;;5018299;28;20045;-39
2022/11/06 09:22:51;;;;;;;9.13;3.75;;;12.40;58.30;;;;;;5022701;28;20080;-39
2022/11/06 09:25:19;;;;;;;8.98;3.97;;;12.40;58.20;;;;;;5022896;28;20058;-40
2022/11/06 09:27:49;;;;;;;8.43;3.95;;;12.40;58.20;;;;;;5021107;28;20049;-40
2022/11/06 09:30:18;;;;;;;9.25;3.85;;;12.40;58.20;;;;;;5021767;28;20069;-40
2022/11/06 09:32:46;;;;;;;9.88;3.97;;;12.50;58.30;;;;;;5022454;28;20057;-39
2022/11/06 09:35:15;;;;;;;7.72;3.30;;;12.50;58.30;;;;;;5022972;28;20060;-42
2022/11/06 09:37:43;;;;;;;7.60;3.47;;;12.50;58.20;;;;;;5021384;28;20052;-39
2022/11/06 09:40:20;;;;;;;9.57;3.85;;;12.50;58.20;;;;;;5017988;28;20060;-41
2022/11/06 09:42:57;;;;;;;9.18;3.30;;;12.50;58.00;;;;;;5019500;28;20058;-42
2022/11/06 09:45:28;;;;;;;7.75;3.35;;;12.60;58.00;;;;;;5022628;28;20057;-40
2022/11/06 09:48:00;;;;;;;9.82;3.60;;;12.60;57.90;;;;;;5021238;28;20057;-39
2022/11/06 09:50:33;;;;;;;9.10;3.65;;;12.60;57.80;;;;;;5019353;28;20405;-47
2022/11/06 09:53:06;;;;;;;6.82;3.22;;;12.70;57.80;;;;;;5024447;28;20053;-41
2022/11/06 09:55:38;;;;;;;7.93;3.10;;;12.70;57.70;;;;;;5026716;28;20085;-41
2022/11/06 09:58:11;;;;;;;6.85;3.00;;;12.70;57.60;;;;;;5026276;28;20058;-40
2022/11/06 10:00:39;;;;;;;6.73;3.20;;;12.80;57.60;;;;;;5023567;28;20045;-39
2022/11/06 10:03:15;;;;;;;10.93;3.25;;;12.80;57.50;;;;;;5026201;28;20495;-40
2022/11/06 10:05:46;;;;;;;6.75;3.05;;;12.80;57.50;;;;;;5025852;28;20053;-42
2022/11/06 10:08:17;;;;;;;8.10;3.15;;;12.80;57.40;;;;;;5023083;28;20489;-46
2022/11/06 10:10:54;;;;;;;9.55;3.35;;;12.80;57.20;;;;;;5022393;28;20046;-41
2022/11/06 10:13:37;;;;;;;7.60;3.05;;;12.90;57.20;;;;;;5024438;28;20060;-40
2022/11/06 10:16:14;;;;;;;7.50;2.65;;;12.90;57.20;;;;;;5026085;28;20054;-40
2022/11/06 10:18:53;;;;;;;5.95;2.70;;;13.00;57.20;;;;;;5024425;28;20076;-40
2022/11/06 10:21:24;;;;;;;10.85;2.70;;;13.00;57.20;;;;;;5023444;28;20054;-41
2022/11/06 10:23:56;;;;;;;6.07;2.38;;;13.00;57.10;;;;;;5025881;28;20057;-39
2022/11/06 10:26:33;;;;;;;7.47;2.67;;;13.00;56.90;;;;;;5022815;28;20057;-39
2022/11/06 10:29:25;;;;;;;9.40;2.40;;;13.10;56.90;;;;;;5026108;28;20054;-39
2022/11/06 10:32:04;;;;;;;4.68;2.38;;;13.10;56.80;;;;;;5022610;28;20050;-38
2022/11/06 10:34:36;;;;;;;13.48;3.00;;;13.10;56.80;;;;;;5025871;28;20054;-42
2022/11/06 10:37:10;;;;;;;8.00;2.65;;;13.20;56.90;;;;;;5024972;28;20406;-40
2022/11/06 10:39:38;;;;;;;5.43;2.15;;;13.20;56.60;;;;;;5025244;28;21454;-41
2022/11/06 10:42:11;;;;;;;7.00;2.50;;;13.20;56.60;;;;;;5024085;28;20072;-41
2022/11/06 10:44:42;;;;;;;6.60;2.70;;;13.20;56.50;;;;;;5026448;28;20057;-39
2022/11/06 10:47:17;;;;;;;9.00;2.30;;;13.30;56.50;;;;;;5025157;28;20057;-43
2022/11/06 10:49:47;;;;;;;7.35;2.45;;;13.30;56.50;;;;;;5025593;28;20076;-42
2022/11/06 10:52:47;;;;;;;8.57;2.55;;;13.30;56.50;;;;;;5008576;28;20057;-39
2022/11/06 10:55:45;;;;;;;6.13;2.00;;;13.40;56.50;;;;;;5010736;28;20057;-39
2022/11/06 10:58:15;;;;;;;8.18;2.10;;;13.40;56.50;;;;;;5025039;28;20053;-39
2022/11/06 11:00:43;;;;;;;6.85;2.33;;;13.40;56.60;;;;;;5017380;28;20056;-39
2022/11/06 11:03:21;;;;;;;6.95;2.00;;;13.50;56.60;;;;;;5025159;28;20053;-40
2022/11/06 11:05:49;;;;;;;8.23;2.00;;;13.50;56.30;;;;;;5024700;28;20520;-40
2022/11/06 11:08:40;;;;;;;7.18;2.03;;;13.60;56.40;;;;;;5024764;28;20057;-40
2022/11/06 11:11:21;;;;;;;6.13;1.98;;;13.60;56.40;;;;;;5022643;28;20405;-39
2022/11/06 11:13:51;;;;;;;7.38;1.85;;;13.60;56.30;;;;;;5022632;28;20064;-42
2022/11/06 11:16:21;;;;;;;7.82;1.83;;;13.70;56.20;;;;;;5025169;28;20061;-40
2022/11/06 11:18:49;;;;;;;5.38;2.10;;;13.70;56.10;;;;;;5021755;28;20057;-41
2022/11/06 11:21:24;;;;;;;4.13;1.70;;;13.70;55.90;;;;;;5014636;28;20053;-39
2022/11/06 11:24:09;;;;;;;5.65;1.85;;;13.70;55.70;;;;;;5023731;28;20053;-41
2022/11/06 11:26:39;;;;;;;9.40;2.17;;;13.80;55.40;;;;;;5011257;28;20045;-40
2022/11/06 11:29:16;;;;;;;5.28;1.80;;;13.80;55.50;;;;;;5006142;28;20052;-39
2022/11/06 11:31:47;;;;;;;10.43;2.05;;;13.80;55.30;;;;;;5021721;28;20057;-40
2022/11/06 11:34:20;;;;;;;6.70;1.80;;;13.80;55.20;;;;;;5024395;28;20053;-40
2022/11/06 11:36:54;;;;;;;6.00;1.80;;;13.80;55.10;;;;;;5024075;28;20057;-40
2022/11/06 11:39:27;;;;;;;3.22;1.70;;;13.90;55.30;;;;;;5012126;28;20053;-39
2022/11/06 11:42:14;;;;;;;6.38;1.58;;;13.90;55.20;;;;;;5003665;28;20103;-39
2022/11/06 11:44:42;;;;;;;5.82;1.55;;;13.90;55.30;;;;;;5011989;28;20062;-38
2022/11/06 11:47:20;;;;;;;3.97;1.85;;;13.90;55.30;;;;;;5016851;28;20058;-42
2022/11/06 11:49:47;;;;;;;4.07;1.52;;;14.00;54.80;;;;;;5024017;28;20412;-41
2022/11/06 11:52:19;;;;;;;5.30;1.70;;;14.00;55.00;;;;;;5007130;28;20045;-39
2022/11/06 11:54:53;;;;;;;4.45;2.00;;;14.00;55.00;;;;;;5022176;28;20061;-43
2022/11/06 11:57:22;;;;;;;;;;;14.00;55.10;;;;;;5008804;28;20049;-42
2022/11/06 11:59:54;;;;;;;4.05;1.70;;;14.10;55.20;;;;;;5022398;28;20296;-40
2022/11/06 12:02:26;;;;;;;3.03;1.42;;;14.10;54.90;;;;;;5013596;28;20409;-41
2022/11/06 12:04:57;;;;;;;3.83;1.30;;;14.10;54.80;;;;;;5019787;28;20053;-42
2022/11/06 12:07:28;;;;;;;8.18;1.67;;;14.10;54.80;;;;;;5020457;28;20493;-39
2022/11/06 12:09:58;;;;;;;3.45;1.15;;;14.20;54.60;;;;;;5024904;28;20061;-42
2022/11/06 12:12:30;;;;;;;5.32;1.80;;;14.20;54.40;;;;;;5023946;28;20432;-40
2022/11/06 12:15:18;;;;;;;5.47;1.20;;;14.20;54.30;;;;;;5023046;28;20053;-41
2022/11/06 12:17:50;;;;;;;4.63;1.65;;;14.20;54.00;;;;;;5016488;28;20057;-43
2022/11/06 12:20:20;;;;;;;4.20;1.50;;;14.30;54.00;;;;;;5021627;28;20519;-38
2022/11/06 12:22:50;;;;;;;9.07;2.60;;;14.30;53.70;;;;;;5016726;28;20053;-39
2022/11/06 12:25:23;;;;;;;5.22;1.23;;;14.30;53.40;;;;;;5023607;28;20406;-40
2022/11/06 12:27:54;;;;;;;7.65;1.58;;;14.20;53.20;;;;;;5018714;28;20061;-42
2022/11/06 12:30:21;;;;;;;4.68;1.27;;;14.20;53.10;;;;;;5023187;28;20080;-42
2022/11/06 12:32:57;;;;;;;6.85;1.55;;;14.30;53.20;;;;;;5023266;28;20049;-40
2022/11/06 12:35:28;;;;;;;4.13;1.17;;;14.20;53.10;;;;;;5023228;28;20084;-38
2022/11/06 12:38:04;;;;;;;3.33;1.20;;;14.20;53.20;;;;;;5021617;28;20057;-43
2022/11/06 12:40:38;;;;;;;4.60;1.02;;;14.20;53.10;;;;;;5023460;28;20061;-40
2022/11/06 12:43:11;;;;;;;;;;;14.20;53.20;;;;;;5017902;28;20401;-41
2022/11/06 12:45:55;;;;;;;5.43;1.30;;;14.30;53.50;;;;;;5023723;28;19921;-41
2022/11/06 12:48:43;;;;;;;2.63;1.30;;;14.30;53.10;;;;;;5022848;28;20072;-42
2022/11/06 12:51:20;;;;;;;5.65;1.20;;;14.30;53.00;;;;;;5023116;28;20077;-38
2022/11/06 12:53:56;;;;;;;4.38;1.30;;;14.30;53.10;;;;;;5018068;28;20057;-40
2022/11/06 12:56:31;;;;;;;5.65;1.40;;;14.30;53.10;;;;;;5021327;28;20072;-39
2022/11/06 12:59:08;;;;;;;3.50;1.60;;;14.30;53.20;;;;;;5023637;28;20413;-39
2022/11/06 13:01:45;;;;;;;5.10;1.33;;;14.30;53.20;;;;;;5022485;28;20057;-40
2022/11/06 13:04:32;;;;;;;5.40;1.52;;;14.30;53.20;;;;;;5011649;28;20061;-41
2022/11/06 13:07:30;;;;;;;8.35;1.40;;;14.30;52.90;;;;;;5022201;28;20064;-39
2022/11/06 13:10:12;;;;;;;4.57;1.13;;;14.30;52.90;;;;;;5020574;28;20056;-40
2022/11/06 13:12:48;;;;;;;2.92;1.52;;;14.40;53.00;;;;;;5022292;28;20069;-44
2022/11/06 13:15:26;;;;;;;6.60;1.63;;;14.40;53.00;;;;;;5019572;28;20053;-40
2022/11/06 13:17:59;;;;;;;7.35;1.50;;;14.40;52.90;;;;;;5023058;28;20053;-38
2022/11/06 13:20:34;;;;;;;3.75;1.27;;;14.50;52.80;;;;;;5017300;28;20064;-40